createdAt,value
2023-10-20T00:02:29.048Z,30.80
2023-10-20T00:05:00.143Z,35.53
2023-10-20T00:07:33.988Z,27.13
2023-10-20T00:10:06.996Z,30.00
2023-10-20T00:12:36.545Z,31.40
2023-10-20T00:15:10.560Z,26.03
2023-10-20T00:17:42.624Z,30.97
2023-10-20T00:20:19.510Z,29.47
2023-10-20T00:22:51.017Z,30.40
2023-10-20T00:25:20.022Z,32.67
2023-10-20T00:27:49.490Z,29.93
2023-10-20T00:30:20.655Z,32.97
2023-10-20T00:32:50.162Z,31.30
2023-10-20T00:35:20.409Z,30.13
2023-10-20T00:37:52.240Z,27.20
2023-10-20T00:40:21.374Z,30.43
2023-10-20T00:42:53.517Z,29.57
2023-10-20T00:45:22.096Z,27.57
2023-10-20T00:47:52.769Z,35.17
2023-10-20T00:50:22.070Z,27.30
2023-10-20T00:53:07.165Z,28.63
2023-10-20T00:55:36.169Z,31.47
2023-10-20T00:58:07.056Z,31.33
2023-10-20T01:00:36.255Z,29.93
2023-10-20T01:03:06.116Z,28.03
2023-10-20T01:05:35.594Z,31.80
2023-10-20T01:08:06.369Z,29.43
2023-10-20T01:10:37.218Z,31.87
2023-10-20T01:13:06.503Z,33.33
2023-10-20T01:15:36.247Z,33.00
2023-10-20T01:18:08.521Z,28.00
2023-10-20T01:20:39.565Z,30.67
2023-10-20T01:23:19.118Z,30.63
2023-10-20T01:25:54.455Z,31.60
2023-10-20T01:28:24.048Z,32.67
2023-10-20T01:30:53.516Z,32.87
2023-10-20T01:33:51.986Z,34.77
2023-10-20T01:36:21.015Z,39.93
2023-10-20T01:38:52.796Z,33.60
2023-10-20T01:41:22.907Z,36.13
2023-10-20T01:44:01.405Z,34.50
2023-10-20T01:46:32.862Z,31.83
2023-10-20T01:49:02.664Z,37.53
2023-10-20T01:51:31.319Z,35.37
2023-10-20T01:54:07.641Z,33.57
2023-10-20T01:56:45.526Z,32.70
2023-10-20T01:59:20.424Z,32.20
2023-10-20T02:01:56.917Z,39.30
2023-10-20T02:04:26.490Z,36.20
2023-10-20T02:06:57.773Z,37.10
2023-10-20T02:09:40.011Z,33.10
2023-10-20T02:12:11.941Z,33.17
2023-10-20T02:14:56.247Z,35.40
2023-10-20T02:17:33.332Z,33.00
2023-10-20T02:20:04.302Z,33.33
2023-10-20T02:22:35.276Z,34.03
2023-10-20T02:25:07.338Z,34.13
2023-10-20T02:27:37.779Z,42.03
2023-10-20T02:30:08.370Z,38.83
2023-10-20T02:32:46.043Z,39.70
2023-10-20T02:35:22.949Z,43.10
2023-10-20T02:37:55.293Z,44.03
2023-10-20T02:40:40.430Z,47.17
2023-10-20T02:43:17.039Z,48.53
2023-10-20T02:45:56.132Z,51.40
2023-10-20T02:48:28.425Z,52.20
2023-10-20T02:50:57.608Z,46.70
2023-10-20T02:53:29.448Z,59.67
2023-10-20T02:55:58.646Z,52.50
2023-10-20T02:58:40.531Z,55.10
2023-10-20T03:01:12.285Z,54.23
2023-10-20T03:03:48.886Z,51.13
2023-10-20T03:06:23.768Z,45.77
2023-10-20T03:08:52.991Z,53.13
2023-10-20T03:11:21.717Z,61.47
2023-10-20T03:14:01.728Z,60.83
2023-10-20T03:16:30.774Z,60.03
2023-10-20T03:19:02.485Z,59.83
2023-10-20T03:21:33.206Z,58.80
2023-10-20T03:24:02.741Z,69.53
2023-10-20T03:26:32.921Z,59.20
2023-10-20T03:29:07.282Z,64.87
2023-10-20T03:31:39.102Z,54.57
2023-10-20T03:34:09.583Z,55.53
2023-10-20T03:36:46.431Z,56.67
2023-10-20T03:39:25.573Z,60.50
2023-10-20T03:41:56.644Z,63.87
2023-10-20T03:44:31.498Z,60.60
2023-10-20T03:47:09.962Z,64.67
2023-10-20T03:49:40.437Z,68.97
2023-10-20T03:52:16.755Z,67.03
2023-10-20T03:54:48.180Z,62.90
2023-10-20T03:57:20.599Z,71.57
2023-10-20T03:59:54.899Z,67.30
2023-10-20T04:02:25.671Z,70.20
2023-10-20T04:04:57.456Z,70.10
2023-10-20T04:07:27.936Z,71.23
2023-10-20T04:10:07.447Z,66.60
2023-10-20T04:12:52.061Z,72.77
2023-10-20T04:15:34.967Z,67.10
2023-10-20T04:18:07.844Z,69.10
2023-10-20T04:20:45.347Z,60.03
2023-10-20T04:23:23.056Z,71.10
2023-10-20T04:25:55.057Z,64.87
2023-10-20T04:28:29.774Z,74.67
2023-10-20T04:31:34.156Z,68.67
2023-10-20T04:34:25.695Z,60.00
2023-10-20T04:37:13.936Z,66.70
2023-10-20T04:40:00.877Z,61.97
2023-10-20T04:42:47.760Z,66.03
2023-10-20T04:45:38.626Z,60.30
2023-10-20T04:48:40.763Z,63.37
2023-10-20T04:51:21.416Z,57.47
2023-10-20T04:54:08.709Z,59.30
2023-10-20T04:57:19.087Z,60.17
2023-10-20T05:00:01.320Z,62.43
2023-10-20T05:02:35.490Z,56.67
2023-10-20T05:05:24.289Z,61.00
2023-10-20T05:07:58.036Z,59.00
2023-10-20T05:10:34.326Z,58.43
2023-10-20T05:13:08.745Z,54.57
2023-10-20T05:15:49.689Z,62.63
2023-10-20T05:18:27.850Z,50.60
2023-10-20T05:20:57.705Z,52.07
2023-10-20T05:23:27.169Z,54.30
2023-10-20T05:25:57.440Z,52.23
2023-10-20T05:28:29.061Z,60.70
2023-10-20T05:30:59.889Z,47.90
2023-10-20T05:33:34.212Z,53.00
2023-10-20T05:36:07.317Z,50.80
2023-10-20T05:38:39.001Z,55.63
2023-10-20T05:41:08.479Z,62.53
2023-10-20T05:43:40.114Z,51.60
2023-10-20T05:46:10.675Z,52.47
2023-10-20T05:48:39.726Z,50.67
2023-10-20T05:51:10.012Z,50.70
2023-10-20T05:53:39.475Z,55.13
2023-10-20T05:56:16.946Z,46.70
2023-10-20T05:58:55.334Z,49.70
2023-10-20T06:01:24.414Z,61.93
2023-10-20T06:03:59.677Z,51.67
2023-10-20T06:06:38.670Z,63.27
2023-10-20T06:09:10.450Z,53.17
2023-10-20T06:11:39.771Z,51.53
2023-10-20T06:14:08.690Z,48.43
2023-10-20T06:16:46.101Z,51.43
2023-10-20T06:19:25.189Z,53.40
2023-10-20T06:21:57.133Z,53.50
2023-10-20T06:24:28.467Z,49.43
2023-10-20T06:27:04.110Z,45.37
2023-10-20T06:29:47.394Z,49.47
2023-10-20T06:32:29.532Z,48.97
2023-10-20T06:35:01.927Z,42.20
2023-10-20T06:37:59.394Z,42.93
2023-10-20T06:40:28.846Z,46.27
2023-10-20T06:42:58.199Z,45.90
2023-10-20T06:45:34.804Z,43.30
2023-10-20T06:48:08.077Z,48.40
2023-10-20T06:50:37.017Z,44.03
2023-10-20T06:53:07.872Z,47.17
2023-10-20T06:55:59.941Z,41.50
2023-10-20T06:58:26.310Z,41.80
2023-10-20T07:00:54.819Z,42.20
2023-10-20T07:03:26.917Z,49.73
2023-10-20T07:05:58.649Z,45.50
2023-10-20T07:08:31.566Z,47.47
2023-10-20T07:11:07.269Z,46.17
2023-10-20T07:13:36.791Z,44.13
2023-10-20T07:16:08.274Z,42.27
2023-10-20T07:18:45.539Z,42.90
2023-10-20T07:21:30.688Z,42.13
2023-10-20T07:24:11.194Z,46.23
2023-10-20T07:26:39.763Z,52.83
2023-10-20T07:29:18.623Z,46.83
2023-10-20T07:31:48.608Z,43.80
2023-10-20T07:34:20.833Z,48.77
2023-10-20T07:36:50.273Z,41.60
2023-10-20T07:39:19.766Z,49.67
2023-10-20T07:41:54.682Z,44.63
2023-10-20T07:44:26.440Z,45.73
2023-10-20T07:47:03.465Z,41.30
2023-10-20T07:49:31.829Z,40.67
2023-10-20T07:52:03.210Z,44.03
2023-10-20T07:54:35.427Z,37.47
2023-10-20T07:57:06.926Z,42.27
2023-10-20T07:59:36.623Z,42.90
2023-10-20T08:02:06.788Z,44.57
2023-10-20T08:04:39.018Z,40.37
2023-10-20T08:07:18.800Z,43.60
2023-10-20T08:09:50.926Z,40.00
2023-10-20T08:12:26.232Z,38.30
2023-10-20T08:14:57.970Z,44.13
2023-10-20T08:17:29.007Z,38.70
2023-10-20T08:20:01.044Z,34.40
2023-10-20T08:22:46.086Z,37.50
2023-10-20T08:25:29.409Z,37.33
2023-10-20T08:28:07.488Z,39.70
2023-10-20T08:30:41.741Z,35.50
2023-10-20T08:33:10.647Z,33.13
2023-10-20T08:35:39.824Z,36.10
2023-10-20T08:38:44.083Z,30.23
2023-10-20T08:41:26.606Z,35.70
2023-10-20T08:43:57.799Z,33.43
2023-10-20T08:46:35.348Z,32.67
2023-10-20T08:49:05.276Z,30.87
2023-10-20T08:51:40.008Z,35.50
2023-10-20T08:54:10.874Z,32.87
2023-10-20T08:56:44.300Z,27.10
2023-10-20T08:59:16.639Z,26.60
2023-10-20T09:01:48.587Z,30.53
2023-10-20T09:04:23.509Z,15.63
2023-10-20T09:06:56.072Z,19.80
2023-10-20T09:09:27.073Z,24.93
2023-10-20T09:12:01.572Z,16.93
2023-10-20T09:14:30.687Z,29.77
2023-10-20T09:17:02.926Z,30.20
2023-10-20T09:19:34.337Z,24.27
2023-10-20T09:22:05.215Z,19.20
2023-10-20T09:24:36.726Z,11.87
2023-10-20T09:27:15.939Z,13.13
2023-10-20T09:29:44.719Z,11.63
2023-10-20T09:32:22.537Z,17.30
2023-10-20T09:34:52.386Z,17.07
2023-10-20T09:37:26.068Z,13.70
2023-10-20T09:40:06.540Z,13.53
2023-10-20T09:42:48.077Z,13.63
2023-10-20T09:45:18.326Z,13.37
2023-10-20T09:47:54.383Z,17.70
2023-10-20T09:50:25.495Z,12.30
2023-10-20T09:52:57.089Z,10.47
2023-10-20T09:55:26.750Z,15.93
2023-10-20T09:58:01.973Z,11.30
2023-10-20T10:00:33.480Z,13.70
2023-10-20T10:03:03.514Z,14.47
2023-10-20T10:05:35.609Z,17.30
2023-10-20T10:08:07.837Z,16.33
2023-10-20T10:10:37.625Z,18.27
2023-10-20T10:13:12.733Z,13.27
2023-10-20T10:15:42.199Z,19.47
2023-10-20T10:18:24.219Z,12.40
2023-10-20T10:20:56.020Z,13.17
2023-10-20T10:23:34.860Z,11.40
2023-10-20T10:26:19.362Z,12.07
2023-10-20T10:28:54.182Z,9.67
2023-10-20T10:31:22.889Z,15.80
2023-10-20T10:34:11.426Z,8.23
2023-10-20T10:36:51.399Z,15.03
2023-10-20T10:39:29.601Z,11.93
2023-10-20T10:42:06.488Z,13.80
2023-10-20T10:44:40.665Z,10.30
2023-10-20T10:47:24.385Z,10.93
2023-10-20T10:49:56.488Z,5.50
2023-10-20T10:52:24.774Z,7.63
2023-10-20T10:54:58.837Z,9.43
2023-10-20T10:57:41.746Z,11.97
2023-10-20T11:00:24.122Z,11.07
2023-10-20T11:02:52.704Z,15.23
2023-10-20T11:05:36.373Z,12.90
2023-10-20T11:08:14.992Z,13.90
2023-10-20T11:10:48.346Z,11.60
2023-10-20T11:13:24.359Z,6.50
2023-10-20T11:16:08.148Z,12.83
2023-10-20T11:18:39.834Z,9.47
2023-10-20T11:21:16.178Z,5.63
2023-10-20T11:23:56.059Z,14.67
2023-10-20T11:26:26.587Z,13.70
2023-10-20T11:28:59.331Z,15.83
2023-10-20T11:31:34.057Z,11.93
2023-10-20T11:34:06.336Z,12.07
2023-10-20T11:36:35.622Z,10.83
2023-10-20T11:39:12.322Z,18.70
2023-10-20T11:41:43.587Z,10.83
2023-10-20T11:44:23.148Z,14.87
2023-10-20T11:46:58.986Z,14.20
2023-10-20T11:49:30.877Z,10.53
2023-10-20T11:52:13.881Z,9.30
2023-10-20T11:54:54.003Z,19.13
2023-10-20T11:57:26.715Z,14.17
2023-10-20T11:59:55.026Z,10.80
2023-10-20T12:02:38.875Z,12.20
2023-10-20T12:05:11.432Z,9.30
2023-10-20T12:07:41.362Z,8.87
2023-10-20T12:10:21.348Z,8.80
2023-10-20T12:12:54.252Z,7.67
2023-10-20T12:15:25.245Z,14.50
2023-10-20T12:17:56.090Z,12.30
2023-10-20T12:20:26.430Z,10.13
2023-10-20T12:23:00.110Z,15.50
2023-10-20T12:25:31.697Z,16.37
2023-10-20T12:28:10.221Z,14.87
2023-10-20T12:30:40.588Z,11.83
2023-10-20T12:33:20.816Z,20.37
2023-10-20T12:35:52.691Z,14.83
2023-10-20T12:38:28.983Z,16.37
2023-10-20T12:40:58.028Z,10.57
2023-10-20T12:43:29.191Z,9.70
2023-10-20T12:46:00.355Z,15.23
2023-10-20T12:48:36.277Z,15.50
2023-10-20T12:51:09.717Z,10.87
2023-10-20T12:53:38.310Z,19.10
2023-10-20T12:56:09.143Z,14.00
2023-10-20T12:58:43.178Z,9.23
2023-10-20T13:01:25.165Z,12.43
2023-10-20T13:04:06.004Z,17.10
2023-10-20T13:06:49.819Z,14.63
2023-10-20T13:09:29.968Z,10.50
2023-10-20T13:11:59.112Z,12.17
2023-10-20T13:14:28.014Z,14.40
2023-10-20T13:19:54.893Z,18.73
2023-10-20T13:22:28.513Z,13.57
2023-10-20T13:25:04.995Z,10.77
2023-10-20T13:27:36.743Z,21.73
2023-10-20T13:30:16.792Z,11.27
2023-10-20T13:32:45.070Z,24.03
2023-10-20T13:35:26.341Z,23.00
2023-10-20T13:37:56.310Z,18.87
2023-10-20T13:40:35.664Z,18.17
2023-10-20T13:43:06.476Z,15.43
2023-10-20T13:45:39.029Z,14.33
2023-10-20T13:48:10.561Z,18.93
2023-10-20T13:50:43.482Z,16.27
2023-10-20T13:53:15.863Z,28.83
2023-10-20T13:55:46.050Z,15.00
2023-10-20T13:58:23.153Z,14.37
2023-10-20T14:00:54.919Z,20.57
2023-10-20T14:03:28.359Z,21.17
2023-10-20T14:06:10.444Z,20.27
2023-10-20T14:08:42.505Z,14.40
2023-10-20T14:11:15.074Z,10.77
2023-10-20T14:13:48.635Z,19.87
2023-10-20T14:16:21.727Z,20.13
2023-10-20T14:19:05.732Z,17.40
2023-10-20T14:21:52.006Z,17.83
2023-10-20T14:24:22.575Z,15.57
2023-10-20T14:26:59.197Z,32.90
2023-10-20T14:29:30.249Z,19.27
2023-10-20T14:31:58.507Z,16.90
2023-10-20T14:34:27.096Z,24.10
2023-10-20T14:37:02.524Z,18.47
2023-10-20T14:39:31.218Z,23.07
2023-10-20T14:42:03.067Z,14.00
2023-10-20T14:44:40.917Z,19.60
2023-10-20T14:47:12.473Z,22.00
2023-10-20T14:49:45.054Z,20.10
2023-10-20T14:52:30.463Z,18.13
2023-10-20T14:55:08.232Z,18.60
2023-10-20T14:57:42.385Z,12.37
2023-10-20T15:00:19.981Z,23.20
2023-10-20T15:02:53.079Z,17.83
2023-10-20T15:05:27.315Z,31.63
2023-10-20T15:08:05.216Z,27.93
2023-10-20T15:10:34.215Z,51.63
2023-10-20T15:13:06.698Z,37.73
2023-10-20T15:15:36.237Z,20.10
2023-10-20T15:18:13.716Z,20.77
2023-10-20T15:20:53.799Z,21.53
2023-10-20T15:23:31.116Z,18.50
2023-10-20T15:26:01.401Z,23.70
2023-10-20T15:28:31.817Z,14.63
2023-10-20T15:31:11.023Z,17.73
2023-10-20T15:33:41.842Z,11.43
2023-10-20T15:36:12.218Z,16.40
2023-10-20T15:38:50.459Z,30.57
2023-10-20T15:41:22.991Z,15.90
2023-10-20T15:43:58.088Z,11.67
2023-10-20T15:46:29.889Z,19.80
2023-10-20T15:48:58.453Z,18.67
2023-10-20T15:51:29.387Z,14.70
2023-10-20T15:54:04.183Z,9.10
2023-10-20T15:56:33.333Z,12.43
2023-10-20T15:59:04.506Z,20.93
2023-10-20T16:01:35.760Z,19.17
2023-10-20T16:04:14.956Z,15.53
2023-10-20T16:06:48.349Z,18.87
2023-10-20T16:09:33.973Z,18.50
2023-10-20T16:12:05.343Z,19.93
2023-10-20T16:14:33.586Z,23.53
2023-10-20T16:17:02.464Z,17.90
2023-10-20T16:19:39.384Z,16.63
2023-10-20T16:22:09.849Z,21.90
2023-10-20T16:24:52.205Z,20.90
2023-10-20T16:27:25.914Z,15.43
2023-10-20T16:30:06.678Z,15.23
2023-10-20T16:32:47.838Z,18.47
2023-10-20T16:35:22.172Z,27.57
2023-10-20T16:37:57.722Z,15.00
2023-10-20T16:40:46.121Z,12.70
2023-10-20T16:43:19.208Z,20.50
2023-10-20T16:45:53.024Z,20.20
2023-10-20T16:48:26.731Z,15.60
2023-10-20T16:51:01.754Z,13.67
2023-10-20T16:53:47.898Z,16.33
2023-10-20T16:56:38.214Z,25.43
2023-10-20T16:59:13.475Z,17.07
2023-10-20T17:01:46.776Z,20.23
2023-10-20T17:04:22.474Z,17.07
2023-10-20T17:06:56.189Z,14.70
2023-10-20T17:09:35.306Z,14.73
2023-10-20T17:12:18.343Z,19.90
2023-10-20T17:15:00.346Z,24.33
2023-10-20T17:17:34.430Z,11.57
2023-10-20T17:20:08.079Z,13.20
2023-10-20T17:22:48.254Z,19.30
2023-10-20T17:25:32.706Z,27.13
2023-10-20T17:28:06.780Z,12.70
2023-10-20T17:30:47.874Z,20.67
2023-10-20T17:33:19.543Z,28.13
2023-10-20T17:35:53.453Z,16.00
2023-10-20T17:38:24.810Z,26.90
2023-10-20T17:40:59.312Z,20.70
2023-10-20T17:43:43.398Z,21.03
2023-10-20T17:46:22.199Z,16.23
2023-10-20T17:48:57.131Z,14.73
2023-10-20T17:51:38.549Z,19.47
2023-10-20T17:54:28.291Z,17.13
2023-10-20T17:57:13.940Z,26.63
2023-10-20T18:00:07.633Z,19.23
2023-10-20T18:02:57.673Z,19.10
2023-10-20T18:05:38.253Z,28.70
2023-10-20T18:08:19.936Z,15.03
2023-10-20T18:10:52.619Z,25.87
2023-10-20T18:13:28.425Z,18.57
2023-10-20T18:16:05.791Z,19.23
2023-10-20T18:18:46.407Z,19.93
2023-10-20T18:21:28.892Z,15.83
2023-10-20T18:24:05.902Z,18.70
2023-10-20T18:26:40.103Z,21.00
2023-10-20T18:32:13.821Z,21.60
2023-10-20T18:35:02.206Z,17.00
2023-10-20T18:37:35.438Z,21.90
2023-10-20T18:40:11.966Z,17.93
2023-10-20T18:42:49.050Z,24.87
2023-10-20T18:45:21.292Z,20.90
2023-10-20T18:47:58.614Z,19.67
2023-10-20T18:50:32.310Z,21.93
2023-10-20T18:53:07.550Z,19.73
2023-10-20T18:55:44.716Z,20.70
2023-10-20T18:58:27.129Z,20.33
2023-10-20T19:01:08.000Z,17.07
2023-10-20T19:04:04.154Z,18.90
2023-10-20T19:06:40.534Z,19.60
2023-10-20T19:09:22.276Z,20.43
2023-10-20T19:11:53.738Z,20.40
2023-10-20T19:14:35.363Z,16.90
2023-10-20T19:17:15.556Z,25.03
2023-10-20T19:19:53.408Z,19.57
2023-10-20T19:22:45.228Z,24.90
2023-10-20T19:25:21.904Z,15.93
2023-10-20T19:28:09.412Z,24.83
2023-10-20T19:30:42.726Z,20.90
2023-10-20T19:33:20.258Z,21.57
2023-10-20T19:35:57.163Z,24.93
2023-10-20T19:38:31.330Z,27.20
2023-10-20T19:41:06.359Z,21.60
2023-10-20T19:43:51.598Z,21.90
2023-10-20T19:46:29.315Z,28.67
2023-10-20T19:49:05.669Z,21.67
2023-10-20T19:51:56.940Z,28.33
2023-10-20T19:54:43.426Z,25.53
2023-10-20T19:57:17.541Z,35.97
2023-10-20T20:00:02.795Z,18.80
2023-10-20T20:03:03.314Z,20.53
2023-10-20T20:05:47.223Z,18.97
2023-10-20T20:08:42.512Z,15.63
2023-10-20T20:11:13.672Z,28.80
2023-10-20T20:13:50.564Z,31.10
2023-10-20T20:16:28.188Z,19.03
2023-10-20T20:18:59.876Z,18.30
2023-10-20T20:21:32.610Z,29.50
2023-10-20T20:24:23.588Z,21.10
2023-10-20T20:26:54.688Z,15.23
2023-10-20T20:29:34.973Z,23.77
2023-10-20T20:32:06.593Z,25.60
2023-10-20T20:34:43.603Z,14.17
2023-10-20T20:37:13.985Z,24.30
2023-10-20T20:39:46.389Z,21.10
2023-10-20T20:42:14.955Z,23.10
2023-10-20T20:44:51.270Z,26.87
2023-10-20T20:47:24.611Z,18.60
2023-10-20T20:50:13.240Z,20.17
2023-10-20T20:52:51.036Z,19.60
2023-10-20T20:55:30.149Z,24.47
2023-10-20T20:58:12.159Z,19.40
2023-10-20T21:00:46.781Z,31.63
2023-10-20T21:03:22.452Z,26.17
2023-10-20T21:06:03.872Z,17.27
2023-10-20T21:08:48.015Z,15.77
2023-10-20T21:11:20.389Z,24.17
2023-10-20T21:13:52.808Z,15.33
2023-10-20T21:16:24.620Z,22.53
2023-10-20T21:18:55.902Z,31.60
2023-10-20T21:21:32.696Z,25.83
2023-10-20T21:24:06.383Z,26.07
2023-10-20T21:26:45.125Z,17.33
2023-10-20T21:29:25.822Z,28.43
2023-10-20T21:32:00.767Z,16.53
2023-10-20T21:34:37.336Z,16.77
2023-10-20T21:37:05.761Z,21.03
2023-10-20T21:39:35.624Z,22.60
2023-10-20T21:42:12.173Z,26.43
2023-10-20T21:44:41.746Z,22.50
2023-10-20T21:47:14.074Z,24.23
2023-10-20T21:49:44.816Z,20.53
2023-10-20T21:52:15.112Z,17.07
2023-10-20T21:54:45.481Z,20.77
2023-10-20T21:57:17.511Z,25.57
2023-10-20T21:59:45.710Z,21.27
2023-10-20T22:02:25.180Z,24.13
2023-10-20T22:04:54.257Z,23.90
2023-10-20T22:07:26.615Z,32.00
2023-10-20T22:12:56.146Z,19.50
2023-10-20T22:15:30.421Z,31.37
2023-10-20T22:18:04.347Z,28.00
2023-10-20T22:20:33.771Z,31.43
2023-10-20T22:23:05.821Z,18.63
2023-10-20T22:25:43.454Z,24.00
2023-10-20T22:28:33.094Z,24.60
2023-10-20T22:31:04.252Z,35.90
2023-10-20T22:33:40.788Z,24.20
2023-10-20T22:36:11.547Z,29.23
2023-10-20T22:38:43.585Z,25.90
2023-10-20T22:41:14.136Z,25.70
2023-10-20T22:44:00.235Z,23.60
2023-10-20T22:46:34.320Z,23.27
2023-10-20T22:49:05.997Z,29.63
2023-10-20T22:51:37.895Z,24.23
2023-10-20T22:54:08.066Z,18.97
2023-10-20T22:56:38.852Z,20.27
2023-10-20T22:59:24.038Z,13.83
2023-10-20T23:01:57.656Z,22.90
2023-10-20T23:04:29.556Z,22.20
2023-10-20T23:06:58.962Z,23.70
2023-10-20T23:09:30.076Z,24.77
2023-10-20T23:11:58.945Z,28.03
2023-10-20T23:14:37.863Z,21.37
2023-10-20T23:17:18.279Z,16.43
2023-10-20T23:19:47.519Z,21.43
2023-10-20T23:22:24.451Z,19.43
2023-10-20T23:24:54.388Z,16.43
2023-10-20T23:27:22.862Z,23.70
2023-10-20T23:29:52.921Z,21.53
2023-10-20T23:32:21.853Z,23.93
2023-10-20T23:34:57.251Z,30.23
2023-10-20T23:37:37.154Z,26.43
2023-10-20T23:40:12.795Z,16.63
2023-10-20T23:42:43.967Z,26.00
2023-10-20T23:45:24.348Z,24.30
2023-10-20T23:47:58.217Z,24.83
2023-10-20T23:50:32.914Z,24.53
2023-10-20T23:53:10.612Z,29.37
2023-10-20T23:55:40.047Z,19.10
2023-10-20T23:58:08.921Z,28.10
